Time;durP1;ratioP1;P1;durP2;ratioP2;P2;SDS_P1;SDS_P2;PMS_P1;PMS_P2;Temp;Humidity;BMP_temperature;BMP_pressure;BME280_temperature;BME280_humidity;BME280_pressure;Samples;Min_cycle;Max_cycle;Signal;HPM_P1;HPM_P2
2023/08/30 00:01:00;;;;;;;8.32;5.28;;;;;;;14.55;100.00;100791.25;5025180;28;20045;-67
2023/08/30 00:03:26;;;;;;;8.18;4.93;;;;;;;14.57;100.00;100792.75;5002259;28;20755;-68
2023/08/30 00:05:53;;;;;;;8.18;5.32;;;;;;;14.53;100.00;100790.59;5024466;28;20048;-67
2023/08/30 00:08:19;;;;;;;10.90;5.15;;;;;;;14.50;100.00;100783.84;5030748;28;20090;-67
2023/08/30 00:10:46;;;;;;;13.20;5.55;;;;;;;14.50;100.00;100794.38;5004069;28;20060;-67
2023/08/30 00:13:12;;;;;;;13.25;5.13;;;;;;;14.48;100.00;100790.28;5012790;28;20050;-67
2023/08/30 00:15:39;;;;;;;9.40;4.90;;;;;;;14.49;100.00;100787.47;5005387;28;20053;-67
2023/08/30 00:18:05;;;;;;;8.50;5.20;;;;;;;14.46;100.00;100787.81;5024249;28;20723;-67
2023/08/30 00:20:33;;;;;;;10.07;5.63;;;;;;;14.45;100.00;100786.19;5002660;28;20064;-67
2023/08/30 00:23:00;;;;;;;7.95;5.57;;;;;;;14.46;100.00;100774.63;5006981;28;20046;-67
2023/08/30 00:25:26;;;;;;;9.57;5.45;;;;;;;14.47;100.00;100780.75;5018115;28;20780;-67
2023/08/30 00:27:53;;;;;;;9.95;5.40;;;;;;;14.46;100.00;100773.81;5014405;28;20128;-67
2023/08/30 00:30:19;;;;;;;7.15;5.20;;;;;;;14.44;100.00;100777.44;5030803;28;20049;-67
2023/08/30 00:32:46;;;;;;;7.18;5.45;;;;;;;14.45;100.00;100770.34;5004624;28;20430;-67
2023/08/30 00:35:12;;;;;;;14.13;6.10;;;;;;;14.48;100.00;100767.34;5007676;28;20072;-67
2023/08/30 00:37:40;;;;;;;9.68;5.97;;;;;;;14.50;100.00;100765.34;5004427;28;20103;-67
2023/08/30 00:40:07;;;;;;;14.20;5.80;;;;;;;14.45;100.00;100762.44;5009789;28;20072;-67
2023/08/30 00:42:33;;;;;;;13.20;5.63;;;;;;;14.41;100.00;100766.41;5016752;28;20060;-67
2023/08/30 00:45:00;;;;;;;9.23;5.80;;;;;;;14.33;100.00;100763.78;5001672;28;20538;-67
2023/08/30 00:47:27;;;;;;;14.27;6.47;;;;;;;14.28;100.00;100760.88;5010717;28;20099;-67
2023/08/30 00:49:53;;;;;;;9.63;5.47;;;;;;;14.26;100.00;100761.03;5008906;28;20076;-67
2023/08/30 00:52:20;;;;;;;8.20;5.13;;;;;;;14.22;100.00;100760.53;5002964;28;20052;-68
2023/08/30 00:54:47;;;;;;;8.02;5.60;;;;;;;14.21;100.00;100764.19;5004321;28;20166;-67
2023/08/30 00:57:13;;;;;;;9.05;5.55;;;;;;;14.21;100.00;100766.00;5017212;28;20126;-67
2023/08/30 00:59:40;;;;;;;7.85;5.57;;;;;;;14.18;100.00;100761.06;5027117;28;20103;-67
2023/08/30 01:02:06;;;;;;;14.57;5.88;;;;;;;14.14;100.00;100763.22;5005725;28;20101;-65
2023/08/30 01:04:33;;;;;;;10.35;5.68;;;;;;;14.15;100.00;100762.25;5009982;28;20541;-65
2023/08/30 01:07:00;;;;;;;8.82;5.70;;;;;;;14.11;100.00;100765.38;5000392;28;20050;-65
2023/08/30 01:09:26;;;;;;;9.50;5.53;;;;;;;14.07;100.00;100759.63;5006990;28;20085;-65
2023/08/30 01:12:00;;;;;;;7.90;5.60;;;;;;;13.99;100.00;100760.47;5001814;28;20057;-65
2023/08/30 01:14:38;;;;;;;9.13;5.20;;;;;;;13.94;100.00;100765.44;5009029;28;20078;-65
2023/08/30 01:17:07;;;;;;;7.38;5.03;;;;;;;13.87;100.00;100756.56;5008840;28;20120;-65
2023/08/30 01:19:52;;;;;;;8.48;5.38;;;;;;;13.84;100.00;100756.91;5005938;28;20131;-65
2023/08/30 01:22:43;;;;;;;10.55;5.65;;;;;;;13.77;100.00;100755.94;5011288;28;20083;-65
2023/08/30 01:25:37;;;;;;;7.97;5.07;;;;;;;13.74;100.00;100757.09;4996917;28;20050;-65
2023/08/30 01:28:06;;;;;;;10.23;5.72;;;;;;;13.68;100.00;100754.31;5009381;28;20057;-65
2023/08/30 01:30:37;;;;;;;8.15;5.35;;;;;;;13.63;100.00;100749.53;5001083;28;20054;-65
2023/08/30 01:33:04;;;;;;;9.98;5.78;;;;;;;13.58;100.00;100749.22;5007922;28;20728;-65
2023/08/30 01:35:35;;;;;;;10.77;5.97;;;;;;;13.51;100.00;100749.06;5001579;28;20046;-65
2023/08/30 01:38:03;;;;;;;7.50;5.78;;;;;;;13.48;100.00;100744.13;5011892;28;20046;-65
2023/08/30 01:40:35;;;;;;;9.98;6.03;;;;;;;13.48;100.00;100751.22;5003083;28;20139;-65
2023/08/30 01:43:05;;;;;;;7.97;5.80;;;;;;;13.47;100.00;100745.13;5008728;28;20050;-66
2023/08/30 01:45:38;;;;;;;11.65;5.50;;;;;;;13.49;100.00;100747.59;5010455;28;20064;-66
2023/08/30 01:48:07;;;;;;;9.80;5.35;;;;;;;13.48;100.00;100748.56;5013189;28;20128;-65
2023/08/30 01:50:34;;;;;;;9.07;5.47;;;;;;;13.42;100.00;100745.59;5018762;28;20057;-65
2023/08/30 01:53:02;;;;;;;9.50;5.68;;;;;;;13.41;100.00;100740.53;5002820;28;20113;-65
2023/08/30 01:55:30;;;;;;;10.73;5.88;;;;;;;13.36;100.00;100751.53;5015908;28;20525;-66
2023/08/30 01:57:56;;;;;;;10.80;6.23;;;;;;;13.35;100.00;100754.34;5006569;28;20152;-66
2023/08/30 02:00:23;;;;;;;8.48;6.32;;;;;;;13.29;100.00;100747.91;5019917;28;20087;-66
2023/08/30 02:02:49;;;;;;;9.10;6.30;;;;;;;13.32;100.00;100744.16;5010775;28;20147;-66
2023/08/30 02:05:16;;;;;;;10.65;7.03;;;;;;;13.32;100.00;100752.06;5018046;28;20111;-65
2023/08/30 02:08:05;;;;;;;10.55;7.15;;;;;;;13.33;100.00;100746.63;5011426;28;20053;-66
2023/08/30 02:10:35;;;;;;;15.07;9.25;;;;;;;13.39;100.00;100742.50;5001389;28;20049;-65
2023/08/30 02:13:03;;;;;;;11.55;7.60;;;;;;;13.42;100.00;100744.78;5019017;28;20057;-66
2023/08/30 02:15:32;;;;;;;9.32;6.30;;;;;;;13.46;100.00;100738.19;5000217;28;20054;-66
2023/08/30 02:18:00;;;;;;;9.60;6.40;;;;;;;13.45;100.00;100724.22;5021657;28;20478;-66
2023/08/30 02:20:26;;;;;;;8.35;6.20;;;;;;;13.50;100.00;100728.16;5010481;28;20084;-66
2023/08/30 02:22:57;;;;;;;12.38;6.63;;;;;;;13.50;100.00;100721.06;5024164;28;20063;-66
2023/08/30 02:25:24;;;;;;;9.85;6.18;;;;;;;13.55;100.00;100733.75;5021434;28;20057;-66
2023/08/30 02:27:51;;;;;;;9.30;6.20;;;;;;;13.59;100.00;100733.25;5007725;28;20148;-66
2023/08/30 02:30:17;;;;;;;10.38;6.28;;;;;;;13.60;100.00;100731.41;5005752;28;20058;-66
2023/08/30 02:32:44;;;;;;;9.18;6.32;;;;;;;13.61;100.00;100727.81;5002202;28;20212;-66
2023/08/30 02:35:10;;;;;;;9.35;6.18;;;;;;;13.65;100.00;100729.13;5017369;28;20060;-66
2023/08/30 02:37:37;;;;;;;8.20;5.75;;;;;;;13.72;100.00;100731.88;5003775;28;20055;-66
2023/08/30 02:40:04;;;;;;;7.38;5.63;;;;;;;13.77;100.00;100725.13;5015062;28;20052;-66
2023/08/30 02:42:30;;;;;;;7.25;5.93;;;;;;;13.79;100.00;100722.31;4994527;28;20081;-66
2023/08/30 02:44:56;;;;;;;9.48;6.03;;;;;;;13.85;100.00;100719.81;5001050;28;20058;-65
2023/08/30 02:47:23;;;;;;;9.32;6.68;;;;;;;13.87;100.00;100710.91;5010311;28;20128;-66
2023/08/30 02:49:49;;;;;;;10.88;6.88;;;;;;;13.90;100.00;100716.69;4999397;28;20151;-65
2023/08/30 02:52:17;;;;;;;8.40;6.10;;;;;;;13.93;100.00;100710.22;5002013;28;20128;-65
2023/08/30 02:54:43;;;;;;;8.40;6.43;;;;;;;13.94;100.00;100707.44;5001399;28;20144;-66
2023/08/30 02:57:10;;;;;;;12.85;6.65;;;;;;;13.96;100.00;100700.16;5007034;28;20600;-66
2023/08/30 02:59:36;;;;;;;9.52;6.38;;;;;;;14.01;100.00;100697.00;5018508;28;20163;-65
2023/08/30 03:02:02;;;;;;;16.85;7.32;;;;;;;14.03;100.00;100695.88;5014233;28;20136;-65
2023/08/30 03:04:29;;;;;;;10.55;6.90;;;;;;;14.07;100.00;100700.78;5019697;28;20050;-66
2023/08/30 03:06:55;;;;;;;9.73;6.40;;;;;;;14.11;100.00;100692.34;5001880;28;20395;-65
2023/08/30 03:09:22;;;;;;;10.95;7.68;;;;;;;14.16;100.00;100691.84;5014719;28;20073;-66
2023/08/30 03:11:48;;;;;;;10.35;7.32;;;;;;;14.23;100.00;100693.63;5016739;28;20053;-66
2023/08/30 03:14:16;;;;;;;11.07;7.50;;;;;;;14.27;100.00;100696.72;5010413;28;20081;-66
2023/08/30 03:16:45;;;;;;;13.97;6.47;;;;;;;14.30;100.00;100699.00;5020513;28;20080;-65
2023/08/30 03:19:11;;;;;;;16.65;8.65;;;;;;;14.32;100.00;100696.19;5017560;28;20054;-67
2023/08/30 03:21:37;;;;;;;11.18;7.82;;;;;;;14.34;100.00;100700.28;5004357;28;20244;-67
2023/08/30 03:24:04;;;;;;;10.13;8.05;;;;;;;14.40;100.00;100690.88;5014155;28;20136;-66
2023/08/30 03:26:31;;;;;;;12.15;8.20;;;;;;;14.41;100.00;100684.63;5009469;28;20050;-66
2023/08/30 03:28:57;;;;;;;16.55;8.45;;;;;;;14.42;100.00;100680.97;5016385;28;20944;-66
2023/08/30 03:31:23;;;;;;;10.85;8.07;;;;;;;14.38;100.00;100672.56;5026939;28;20077;-66
2023/08/30 03:33:50;;;;;;;12.68;8.13;;;;;;;14.36;100.00;100669.28;5012515;28;20379;-66
2023/08/30 03:36:17;;;;;;;11.45;7.72;;;;;;;14.33;100.00;100659.09;4998244;28;20049;-66
2023/08/30 03:38:45;;;;;;;10.67;7.47;;;;;;;14.32;100.00;100651.34;5017585;28;20136;-66
2023/08/30 03:41:11;;;;;;;11.45;8.27;;;;;;;14.30;100.00;100653.34;5005648;28;20115;-66
2023/08/30 03:43:38;;;;;;;15.60;8.50;;;;;;;14.29;100.00;100647.25;5010648;28;20963;-66
2023/08/30 03:46:04;;;;;;;11.27;7.70;;;;;;;14.29;100.00;100644.63;5015730;28;20055;-65
2023/08/30 03:48:32;;;;;;;15.88;8.55;;;;;;;14.30;100.00;100634.88;5006909;28;20616;-65
2023/08/30 03:50:58;;;;;;;13.00;7.65;;;;;;;14.28;100.00;100631.59;4997088;28;20100;-65
2023/08/30 03:53:25;;;;;;;11.43;7.53;;;;;;;14.22;100.00;100641.03;5005398;28;20046;-66
2023/08/30 03:55:51;;;;;;;14.15;8.13;;;;;;;14.19;100.00;100636.09;5010506;28;20057;-66
2023/08/30 03:58:19;;;;;;;10.95;7.60;;;;;;;14.16;100.00;100633.81;5012368;28;20057;-65
2023/08/30 04:00:46;;;;;;;11.25;8.23;;;;;;;14.07;100.00;100625.09;5018606;28;20528;-65
2023/08/30 04:03:15;;;;;;;10.82;7.45;;;;;;;14.04;100.00;100630.75;5003042;28;20506;-65
2023/08/30 04:05:42;;;;;;;14.95;8.35;;;;;;;14.01;100.00;100615.25;5007507;28;20057;-66
2023/08/30 04:08:09;;;;;;;15.20;7.90;;;;;;;13.98;100.00;100613.78;5019541;28;20053;-66
2023/08/30 04:10:41;;;;;;;10.57;8.00;;;;;;;13.95;100.00;100610.69;4989459;28;20053;-65
2023/08/30 04:13:10;;;;;;;17.42;7.60;;;;;;;13.91;100.00;100612.84;5005136;28;20061;-65
2023/08/30 04:15:38;;;;;;;10.05;7.47;;;;;;;13.84;100.00;100607.44;5004942;28;20050;-65
2023/08/30 04:18:06;;;;;;;11.73;7.38;;;;;;;13.83;100.00;100602.34;5016888;28;20140;-66
2023/08/30 04:20:33;;;;;;;11.13;7.65;;;;;;;13.80;100.00;100607.97;5005884;28;20151;-66
2023/08/30 04:23:04;;;;;;;10.43;7.53;;;;;;;13.77;100.00;100603.03;5018614;28;20076;-66
2023/08/30 04:25:30;;;;;;;12.57;7.63;;;;;;;13.74;100.00;100600.72;5016816;28;20466;-65
2023/08/30 04:27:57;;;;;;;11.70;8.10;;;;;;;13.69;100.00;100595.19;5006622;28;20053;-65
2023/08/30 04:30:24;;;;;;;11.35;7.72;;;;;;;13.64;100.00;100590.41;5011142;28;20057;-66
2023/08/30 04:32:51;;;;;;;11.45;7.82;;;;;;;13.62;100.00;100590.59;5010648;28;20157;-65
2023/08/30 04:35:18;;;;;;;11.88;7.75;;;;;;;13.53;100.00;100591.63;5009224;28;20054;-65
2023/08/30 04:37:44;;;;;;;12.00;7.63;;;;;;;13.51;100.00;100595.41;5003584;28;20156;-67
2023/08/30 04:40:11;;;;;;;11.52;7.38;;;;;;;13.47;100.00;100594.13;5015858;28;20057;-65
2023/08/30 04:42:39;;;;;;;9.82;7.50;;;;;;;13.40;100.00;100594.78;5013030;28;20053;-65
2023/08/30 04:45:07;;;;;;;11.07;7.78;;;;;;;13.37;100.00;100589.06;4994918;28;20486;-67
2023/08/30 04:47:34;;;;;;;10.93;7.60;;;;;;;13.31;100.00;100595.81;5007997;28;20551;-65
2023/08/30 04:50:00;;;;;;;11.23;8.05;;;;;;;13.29;100.00;100587.25;5005799;28;20042;-66
2023/08/30 04:52:27;;;;;;;14.25;8.02;;;;;;;13.28;100.00;100590.84;5012760;28;20092;-65
2023/08/30 04:54:53;;;;;;;12.18;7.85;;;;;;;13.26;100.00;100595.47;4996623;28;20132;-65
2023/08/30 04:57:20;;;;;;;11.27;7.50;;;;;;;13.26;100.00;100596.28;5015749;28;20461;-66
2023/08/30 04:59:47;;;;;;;10.98;7.50;;;;;;;13.19;100.00;100591.84;5007985;28;20057;-66
2023/08/30 05:02:14;;;;;;;13.55;8.82;;;;;;;13.15;100.00;100598.44;5002803;28;20131;-66
2023/08/30 05:04:41;;;;;;;13.52;8.38;;;;;;;13.11;100.00;100591.88;5009847;28;20136;-66
2023/08/30 05:07:07;;;;;;;11.88;8.38;;;;;;;13.06;100.00;100590.56;5007363;28;20047;-66
2023/08/30 05:09:34;;;;;;;12.25;7.95;;;;;;;13.01;100.00;100587.63;5005250;28;20046;-66
2023/08/30 05:12:01;;;;;;;14.52;7.97;;;;;;;12.98;100.00;100580.06;5002688;28;20344;-66
2023/08/30 05:14:27;;;;;;;12.48;8.13;;;;;;;12.97;100.00;100580.22;4988637;28;20054;-65
2023/08/30 05:16:54;;;;;;;13.45;7.47;;;;;;;12.98;100.00;100577.44;5024139;28;20155;-66
2023/08/30 05:19:20;;;;;;;13.70;8.02;;;;;;;13.00;100.00;100575.47;5009006;28;20800;-66
2023/08/30 05:21:51;;;;;;;13.20;7.82;;;;;;;12.99;100.00;100572.97;5009538;28;20053;-65
2023/08/30 05:24:17;;;;;;;12.40;7.57;;;;;;;12.97;100.00;100573.16;5014353;28;20053;-66
2023/08/30 05:26:46;;;;;;;10.80;7.45;;;;;;;12.98;100.00;100569.53;5011939;28;20459;-66
2023/08/30 05:29:14;;;;;;;12.23;7.88;;;;;;;12.96;100.00;100565.44;5013705;28;20618;-65
2023/08/30 05:31:41;;;;;;;14.13;7.93;;;;;;;12.92;100.00;100564.94;5014506;28;20845;-66
2023/08/30 05:34:07;;;;;;;12.05;7.85;;;;;;;12.90;100.00;100563.44;5010686;28;20119;-66
2023/08/30 05:36:34;;;;;;;13.20;7.53;;;;;;;12.89;100.00;100553.94;5001380;28;20490;-65
2023/08/30 05:39:00;;;;;;;11.57;8.15;;;;;;;12.92;100.00;100559.69;5012683;28;20511;-67
2023/08/30 05:41:27;;;;;;;10.95;8.23;;;;;;;12.96;100.00;100549.66;4999119;28;20117;-66
2023/08/30 05:43:53;;;;;;;13.05;8.50;;;;;;;12.99;100.00;100557.19;5007093;28;20077;-65
2023/08/30 05:46:20;;;;;;;13.52;8.57;;;;;;;13.01;100.00;100558.66;5001493;28;20053;-66
2023/08/30 05:48:47;;;;;;;12.00;7.68;;;;;;;13.08;100.00;100556.19;5009008;28;20049;-66
2023/08/30 05:51:13;;;;;;;14.27;8.40;;;;;;;13.06;100.00;100542.38;5010632;28;20061;-66
2023/08/30 05:53:40;;;;;;;11.93;8.50;;;;;;;13.14;100.00;100550.25;5000129;28;20066;-66
2023/08/30 05:56:06;;;;;;;13.23;8.48;;;;;;;13.28;100.00;100547.88;5005345;28;20548;-65
2023/08/30 05:58:33;;;;;;;11.60;8.00;;;;;;;13.34;100.00;100540.16;5007484;28;20580;-67
2023/08/30 06:01:03;;;;;;;14.07;8.48;;;;;;;13.39;100.00;100531.75;5010251;28;20049;-65
2023/08/30 06:03:31;;;;;;;12.15;8.23;;;;;;;13.48;100.00;100537.78;5005235;28;20136;-67
2023/08/30 06:05:57;;;;;;;13.48;9.02;;;;;;;13.58;100.00;100541.03;5014940;28;20132;-65
2023/08/30 06:08:24;;;;;;;14.40;9.73;;;;;;;13.70;100.00;100549.34;5023688;28;20042;-66
2023/08/30 06:10:50;;;;;;;14.98;9.48;;;;;;;13.82;100.00;100545.34;5000979;28;20054;-66
2023/08/30 06:13:17;;;;;;;13.07;9.20;;;;;;;13.98;100.00;100541.78;5010923;28;20411;-66
2023/08/30 06:15:45;;;;;;;12.35;10.07;;;;;;;14.06;100.00;100538.28;5005285;28;20061;-64
2023/08/30 06:18:11;;;;;;;14.18;10.07;;;;;;;14.11;100.00;100535.91;4997079;28;20140;-65
2023/08/30 06:20:41;;;;;;;13.55;10.20;;;;;;;14.15;100.00;100531.91;4997348;28;20176;-64
2023/08/30 06:23:08;;;;;;;14.43;11.38;;;;;;;14.22;100.00;100532.88;5013205;28;20068;-64
2023/08/30 06:25:34;;;;;;;16.73;11.90;;;;;;;14.18;100.00;100532.38;5006736;28;20478;-65
2023/08/30 06:28:02;;;;;;;15.25;10.70;;;;;;;14.16;100.00;100530.94;5003123;28;20045;-65
2023/08/30 06:30:29;;;;;;;14.87;10.93;;;;;;;14.24;100.00;100536.13;5013272;28;20077;-64
2023/08/30 06:32:56;;;;;;;18.27;11.65;;;;;;;14.27;100.00;100530.53;5009259;28;20463;-65
2023/08/30 06:35:24;;;;;;;13.63;10.17;;;;;;;14.32;100.00;100529.97;4999980;28;20088;-64
2023/08/30 06:37:50;;;;;;;17.42;10.85;;;;;;;14.38;100.00;100532.72;5006244;28;20144;-64
2023/08/30 06:40:16;;;;;;;19.13;12.60;;;;;;;14.46;100.00;100531.00;5016003;28;20104;-64
2023/08/30 06:42:43;;;;;;;18.23;12.43;;;;;;;14.46;100.00;100534.47;5007547;28;20130;-65
2023/08/30 06:45:11;;;;;;;16.20;11.00;;;;;;;14.57;100.00;100534.06;5005796;28;20543;-64
2023/08/30 06:47:37;;;;;;;15.98;11.45;;;;;;;14.66;100.00;100531.34;5011313;28;20164;-64
2023/08/30 06:50:04;;;;;;;16.33;12.18;;;;;;;14.66;100.00;100536.63;5000395;28;20438;-65
2023/08/30 06:52:30;;;;;;;19.52;11.93;;;;;;;14.71;100.00;100532.44;5007568;28;20165;-64
2023/08/30 06:54:57;;;;;;;15.90;12.18;;;;;;;14.76;100.00;100535.38;5004339;28;20099;-64
2023/08/30 06:57:23;;;;;;;16.25;11.27;;;;;;;14.73;100.00;100527.81;5022598;28;20053;-64
2023/08/30 06:59:50;;;;;;;15.05;10.40;;;;;;;14.71;100.00;100521.06;5012414;28;20399;-65
2023/08/30 07:02:16;;;;;;;14.20;10.93;;;;;;;14.72;100.00;100520.06;5008177;28;20066;-65
2023/08/30 07:04:43;;;;;;;13.75;9.93;;;;;;;14.72;100.00;100526.19;5006234;28;20109;-64
2023/08/30 07:07:09;;;;;;;15.57;11.43;;;;;;;14.77;100.00;100523.00;5001865;28;20124;-64
2023/08/30 07:09:36;;;;;;;16.27;11.02;;;;;;;14.72;100.00;100522.69;5012864;28;20052;-65
2023/08/30 07:12:02;;;;;;;14.57;10.38;;;;;;;14.74;100.00;100526.81;5006454;28;21138;-65
2023/08/30 07:14:28;;;;;;;14.05;11.02;;;;;;;14.74;100.00;100526.81;5004346;28;20241;-64
2023/08/30 07:16:55;;;;;;;17.58;10.65;;;;;;;14.66;100.00;100537.44;5005861;28;20191;-64
2023/08/30 07:19:21;;;;;;;17.05;10.35;;;;;;;14.64;100.00;100528.88;5006231;28;20057;-64
2023/08/30 07:21:48;;;;;;;14.60;10.73;;;;;;;14.64;100.00;100536.81;5011246;28;20141;-66
2023/08/30 07:24:14;;;;;;;15.98;10.95;;;;;;;14.69;100.00;100536.28;5013460;28;20054;-64
2023/08/30 07:26:41;;;;;;;15.30;11.30;;;;;;;14.57;100.00;100536.72;5006158;28;20060;-65
2023/08/30 07:29:08;;;;;;;12.63;10.40;;;;;;;14.48;100.00;100536.94;5001067;28;20147;-64
2023/08/30 07:31:35;;;;;;;20.63;11.25;;;;;;;14.45;100.00;100535.47;5008882;28;20052;-64
2023/08/30 07:34:02;;;;;;;13.15;10.55;;;;;;;14.29;100.00;100535.59;5010255;28;20077;-64
2023/08/30 07:36:29;;;;;;;16.63;11.23;;;;;;;14.29;100.00;100540.88;5007333;28;20491;-64
2023/08/30 07:39:12;;;;;;;13.90;10.35;;;;;;;14.23;100.00;100534.53;5013088;28;20507;-64
2023/08/30 07:41:39;;;;;;;14.70;10.57;;;;;;;14.17;100.00;100528.13;5002902;28;20038;-64
2023/08/30 07:44:05;;;;;;;19.10;10.18;;;;;;;14.24;100.00;100529.03;5008391;28;20149;-68
2023/08/30 07:46:32;;;;;;;15.82;10.05;;;;;;;14.29;100.00;100522.41;4993129;28;20068;-68
2023/08/30 07:48:58;;;;;;;17.48;10.38;;;;;;;14.21;100.00;100516.22;5019424;28;20052;-70
2023/08/30 07:51:25;;;;;;;15.55;11.65;;;;;;;14.08;100.00;100517.81;5026461;28;20053;-68
2023/08/30 07:53:51;;;;;;;17.33;10.68;;;;;;;13.98;100.00;100515.41;5015037;28;20116;-68
2023/08/30 07:56:17;;;;;;;16.73;10.63;;;;;;;13.93;100.00;100510.66;5025786;28;20538;-68
2023/08/30 07:58:44;;;;;;;16.33;11.20;;;;;;;13.81;100.00;100512.88;5012514;28;20110;-69
2023/08/30 08:01:10;;;;;;;18.40;11.15;;;;;;;13.85;100.00;100516.81;5023277;28;20045;-68
2023/08/30 08:03:37;;;;;;;16.55;11.32;;;;;;;13.88;100.00;100518.28;5015496;28;20053;-69
2023/08/30 08:06:14;;;;;;;14.02;10.43;;;;;;;13.93;100.00;100513.28;5023317;28;20584;-69
2023/08/30 08:08:40;;;;;;;17.33;10.32;;;;;;;13.99;100.00;100507.31;5027239;28;20046;-70
2023/08/30 08:11:07;;;;;;;14.02;9.43;;;;;;;14.02;100.00;100498.25;5015103;28;20157;-69
2023/08/30 08:13:33;;;;;;;16.33;10.00;;;;;;;14.10;100.00;100498.16;5028950;28;20076;-69
2023/08/30 08:16:00;;;;;;;17.40;9.50;;;;;;;14.07;100.00;100497.69;5003334;28;20057;-70
2023/08/30 08:18:27;;;;;;;15.25;9.57;;;;;;;13.94;100.00;100508.84;5030979;28;20405;-68
2023/08/30 08:20:53;;;;;;;15.57;8.85;;;;;;;14.02;100.00;100495.59;5021390;28;20049;-69
2023/08/30 08:23:20;;;;;;;14.95;8.38;;;;;;;13.97;100.00;100492.66;5022464;28;20057;-71
2023/08/30 08:25:46;;;;;;;14.18;8.23;;;;;;;14.00;100.00;100479.13;5020230;28;20049;-68
2023/08/30 08:28:13;;;;;;;14.48;9.35;;;;;;;14.04;100.00;100483.06;5015136;28;20478;-67
2023/08/30 08:30:39;;;;;;;13.63;6.88;;;;;;;14.14;100.00;100473.09;5025923;28;20479;-67
2023/08/30 08:33:06;;;;;;;11.98;7.68;;;;;;;14.16;100.00;100476.34;5018969;28;20189;-69
2023/08/30 08:35:33;;;;;;;15.38;8.40;;;;;;;14.29;100.00;100470.50;5027680;28;20598;-67
2023/08/30 08:37:59;;;;;;;14.30;9.55;;;;;;;14.37;100.00;100469.59;4998007;28;20050;-67
2023/08/30 08:40:27;;;;;;;18.50;10.48;;;;;;;14.41;100.00;100470.88;5023254;28;20049;-67
2023/08/30 08:42:56;;;;;;;14.68;9.13;;;;;;;14.48;100.00;100455.94;5020472;28;20068;-67
2023/08/30 08:45:23;;;;;;;16.55;9.93;;;;;;;14.58;100.00;100459.19;5019721;28;20522;-67
2023/08/30 08:47:50;;;;;;;12.70;9.15;;;;;;;14.62;100.00;100452.53;5028993;28;20053;-67
2023/08/30 08:50:17;;;;;;;10.88;7.97;;;;;;;14.71;100.00;100442.69;5021766;28;20060;-67
2023/08/30 08:52:44;;;;;;;12.48;9.30;;;;;;;14.73;100.00;100440.69;4998373;28;20140;-66
2023/08/30 08:55:17;;;;;;;13.23;9.98;;;;;;;14.77;100.00;100447.22;5013917;28;20630;-66
2023/08/30 08:57:45;;;;;;;12.63;9.70;;;;;;;14.72;100.00;100446.13;5019836;28;20552;-66
2023/08/30 09:00:13;;;;;;;13.10;9.93;;;;;;;14.74;100.00;100441.50;5018446;28;20279;-66
2023/08/30 09:02:41;;;;;;;10.80;9.02;;;;;;;14.75;100.00;100438.69;5016917;28;20537;-66
2023/08/30 09:05:08;;;;;;;13.52;9.55;;;;;;;14.74;100.00;100446.78;5021494;28;20053;-66
2023/08/30 09:07:37;;;;;;;14.10;10.13;;;;;;;14.64;100.00;100441.78;5012849;28;20469;-65
2023/08/30 09:10:03;;;;;;;;;;;;;;;14.60;100.00;100438.69;5019777;28;20053;-65
2023/08/30 09:12:35;;;;;;;13.48;10.10;;;;;;;14.62;100.00;100446.41;5019590;28;20022;-64
2023/08/30 09:15:02;;;;;;;13.18;10.25;;;;;;;14.57;100.00;100446.16;5028062;28;20088;-65
2023/08/30 09:17:38;;;;;;;16.17;11.10;;;;;;;14.50;100.00;100445.19;5021018;28;20070;-65
2023/08/30 09:20:12;;;;;;;14.18;10.68;;;;;;;14.46;100.00;100436.81;5016405;28;20805;-64
2023/08/30 09:22:43;;;;;;;12.43;10.30;;;;;;;14.39;100.00;100441.22;5017841;28;20053;-65
2023/08/30 09:25:11;;;;;;;12.88;9.68;;;;;;;14.43;100.00;100434.56;5007560;28;20081;-64
2023/08/30 09:27:41;;;;;;;11.30;9.27;;;;;;;14.48;100.00;100432.19;5019915;28;20050;-64
2023/08/30 09:30:10;;;;;;;13.73;9.95;;;;;;;14.42;100.00;100431.09;5018948;28;20395;-64
2023/08/30 09:32:41;;;;;;;12.25;8.75;;;;;;;14.41;100.00;100436.56;5024165;28;20877;-63
2023/08/30 09:35:09;;;;;;;13.13;8.68;;;;;;;14.42;100.00;100425.81;5014361;28;20049;-63
2023/08/30 09:37:35;;;;;;;12.30;8.10;;;;;;;14.35;100.00;100440.75;5007662;28;20056;-64
2023/08/30 09:40:02;;;;;;;10.85;8.10;;;;;;;14.38;100.00;100434.28;5015718;28;20104;-64
2023/08/30 09:42:28;;;;;;;10.20;7.70;;;;;;;14.35;100.00;100427.56;5005331;28;20399;-63
2023/08/30 09:44:57;;;;;;;10.90;7.60;;;;;;;14.35;100.00;100424.09;5003716;28;20058;-64
2023/08/30 09:47:27;;;;;;;11.68;8.07;;;;;;;14.28;100.00;100423.19;5002538;28;20145;-63
2023/08/30 09:50:00;;;;;;;11.23;8.18;;;;;;;14.32;100.00;100424.44;5013078;28;20096;-64
2023/08/30 09:52:30;;;;;;;12.38;8.20;;;;;;;14.39;100.00;100418.28;5006944;28;20077;-65
2023/08/30 09:54:57;;;;;;;9.82;7.25;;;;;;;14.37;100.00;100409.72;5018059;28;20080;-65
2023/08/30 09:57:24;;;;;;;9.50;7.47;;;;;;;14.37;100.00;100407.09;5007673;28;20168;-65
2023/08/30 09:59:51;;;;;;;9.55;6.53;;;;;;;14.41;100.00;100412.81;5003263;28;20053;-65
2023/08/30 10:02:18;;;;;;;11.00;7.07;;;;;;;14.45;100.00;100414.09;5013232;28;20391;-64
2023/08/30 10:04:45;;;;;;;9.20;7.28;;;;;;;14.44;100.00;100402.72;4997592;28;20128;-65
2023/08/30 10:07:12;;;;;;;9.82;7.32;;;;;;;14.44;100.00;100402.72;5007449;28;20045;-65
2023/08/30 10:09:41;;;;;;;13.27;8.10;;;;;;;14.42;100.00;100391.50;5003149;28;20537;-65
2023/08/30 10:12:28;;;;;;;11.07;7.97;;;;;;;14.54;100.00;100398.97;5007472;28;20510;-65
2023/08/30 10:14:55;;;;;;;12.80;7.28;;;;;;;14.60;100.00;100396.47;5007575;28;20065;-67
2023/08/30 10:17:28;;;;;;;10.52;7.55;;;;;;;14.70;100.00;100390.06;4995859;28;20054;-65
2023/08/30 10:19:56;;;;;;;10.23;7.50;;;;;;;14.77;100.00;100399.72;5008567;28;20049;-65
2023/08/30 10:22:24;;;;;;;9.15;7.18;;;;;;;14.81;100.00;100394.88;5000871;28;20143;-66
2023/08/30 10:24:54;;;;;;;11.05;8.50;;;;;;;14.88;100.00;100392.31;5012726;28;20108;-66
2023/08/30 10:27:39;;;;;;;9.13;7.78;;;;;;;14.87;100.00;100391.50;5003409;28;20049;-65
2023/08/30 10:30:08;;;;;;;11.25;8.00;;;;;;;14.95;100.00;100396.66;5013913;28;20049;-65
2023/08/30 10:32:42;;;;;;;11.85;8.45;;;;;;;15.13;100.00;100383.09;5008764;28;20053;-66
2023/08/30 10:35:14;;;;;;;10.73;7.53;;;;;;;15.28;100.00;100383.00;5006189;28;20057;-66
2023/08/30 10:37:41;;;;;;;11.60;8.48;;;;;;;15.38;100.00;100382.72;5006976;28;21086;-65
2023/08/30 10:40:08;;;;;;;11.95;8.18;;;;;;;15.41;100.00;100380.50;5007455;28;20494;-66
2023/08/30 10:42:35;;;;;;;10.48;8.25;;;;;;;15.46;100.00;100377.28;5009732;28;20136;-66
2023/08/30 10:45:05;;;;;;;10.00;8.48;;;;;;;15.46;100.00;100374.66;4994658;28;20140;-66
2023/08/30 10:47:37;;;;;;;11.05;9.10;;;;;;;15.50;100.00;100380.38;4999605;28;20562;-66
2023/08/30 10:50:07;;;;;;;11.77;9.20;;;;;;;15.62;100.00;100378.84;5011577;28;20061;-65
2023/08/30 10:52:33;;;;;;;9.90;8.90;;;;;;;15.65;100.00;100382.97;5009742;28;20145;-65
2023/08/30 10:55:08;;;;;;;10.70;8.82;;;;;;;15.76;100.00;100377.19;5010130;28;20048;-65
2023/08/30 10:57:36;;;;;;;12.68;9.95;;;;;;;15.83;100.00;100375.41;5003882;28;20046;-65
2023/08/30 11:00:09;;;;;;;11.98;9.93;;;;;;;16.02;100.00;100372.09;5008870;28;20046;-66
2023/08/30 11:02:37;;;;;;;11.15;9.77;;;;;;;16.09;100.00;100371.31;5000554;28;20073;-66
2023/08/30 11:05:06;;;;;;;12.00;9.65;;;;;;;16.23;100.00;100358.97;5008145;28;20049;-66
2023/08/30 11:07:33;;;;;;;12.48;10.18;;;;;;;16.24;100.00;100361.44;4999734;28;20129;-66
2023/08/30 11:10:00;;;;;;;11.27;10.00;;;;;;;16.36;100.00;100362.50;5004661;28;21153;-66
2023/08/30 11:12:27;;;;;;;11.23;9.13;;;;;;;16.55;100.00;100363.63;5016418;28;20046;-67